Tabellarische Übersicht vom Freitag, den 18.06.2021

Oder anderes Datum wählen:






max 31,4°C 87,0% 21,1°C 1013,2hPa 31,0°C 0,0km/h (0Bft) 0,0km/h 0° (N) ∑0,0l/m² 100,000klx ∑0,0min
min 21,1°C 44,0% 17,6°C 1011,9hPa 21,0°C 0,0km/h (0Bft) 0,0km/h 0° (N) ∑0,0l/m² 0,000klx ∑0,0min
Ø 24,7°C 72,0% 19,3°C 1012,5hPa 25,0°C 0,0km/h (0Bft) 0,0km/h 0° (N) ∑0,0l/m² 32,000klx ∑0,0min
Zeit Temperatur Luftfeuchte Taupunkt Luftdruck Windchill Windböen Windgeschwindigkeit Windrichtung Regen Helligkeit Regenzeit
13:35 31,4°C 44,5% 17,9°C 1011,9hPa 31,4°C 0,0km/h (0Bft) 0,0km/h 0,0l/m² 88,819klx 0,0min
13:30 31,4°C 43,7% 17,6°C 1011,9hPa 31,4°C 0,0km/h (0Bft) 0,0km/h 0,0l/m² 93,803klx 0,0min
13:25 30,7°C 47,9% 18,4°C 1011,9hPa 30,7°C 0,0km/h (0Bft) 0,0km/h 0,0l/m² 95,177klx 0,0min
13:20 30,7°C 51,3% 19,5°C 1011,9hPa 30,7°C 0,0km/h (0Bft) 0,0km/h 0,0l/m² 95,186klx 0,0min
13:15 30,9°C 53,1% 20,2°C 1012,0hPa 30,9°C 0,0km/h (0Bft) 0,0km/h 0,0l/m² 99,723klx 0,0min
13:10 29,9°C 56,9% 20,4°C 1012,0hPa 29,9°C 0,0km/h (0Bft) 0,0km/h 0,0l/m² 78,364klx 0,0min
13:05 29,8°C 56,6% 20,2°C 1012,0hPa 29,8°C 0,0km/h (0Bft) 0,0km/h 0,0l/m² 74,001klx 0,0min
13:00 29,2°C 55,7% 19,4°C 1012,0hPa 29,2°C 0,0km/h (0Bft) 0,0km/h 0,0l/m² 46,704klx 0,0min
12:55 29,3°C 57,3% 20,0°C 1011,9hPa 29,3°C 0,0km/h (0Bft) 0,0km/h 0,0l/m² 51,343klx 0,0min
12:50 29,4°C 54,7% 19,3°C 1012,0hPa 29,4°C 0,0km/h (0Bft) 0,0km/h 0,0l/m² 45,811klx 0,0min
12:45 29,6°C 53,5% 19,2°C 1012,0hPa 29,6°C 0,0km/h (0Bft) 0,0km/h 0,0l/m² 48,543klx 0,0min
12:40 29,4°C 54,2% 19,2°C 1012,1hPa 29,4°C 0,0km/h (0Bft) 0,0km/h 0,0l/m² 71,982klx 0,0min
12:35 29,0°C 53,2% 18,5°C 1012,1hPa 29,0°C 0,0km/h (0Bft) 0,0km/h 0,0l/m² 51,119klx 0,0min
12:30 28,4°C 56,8% 19,0°C 1012,1hPa 28,4°C 0,0km/h (0Bft) 0,0km/h 0,0l/m² 41,150klx 0,0min
12:25 28,3°C 56,6% 18,9°C 1012,2hPa 28,3°C 0,0km/h (0Bft) 0,0km/h 0,0l/m² 39,707klx 0,0min
12:20 28,3°C 59,1% 19,5°C 1012,2hPa 28,3°C 0,0km/h (0Bft) 0,0km/h 0,0l/m² 50,188klx 0,0min
12:15 27,7°C 59,9% 19,2°C 1012,2hPa 27,7°C 0,0km/h (0Bft) 0,0km/h 0,0l/m² 32,344klx 0,0min
12:10 27,9°C 58,7% 19,0°C 1012,3hPa 27,9°C 0,0km/h (0Bft) 0,0km/h 0,0l/m² 32,934klx 0,0min
12:05 27,8°C 61,0% 19,6°C 1012,4hPa 27,8°C 0,0km/h (0Bft) 0,0km/h 0,0l/m² 33,732klx 0,0min
12:00 27,9°C 61,6% 19,8°C 1012,4hPa 27,9°C 0,0km/h (0Bft) 0,0km/h 0,0l/m² 34,233klx 0,0min
11:55 28,0°C 61,3% 19,9°C 1012,4hPa 28,0°C 0,0km/h (0Bft) 0,0km/h 0,0l/m² 35,013klx 0,0min
11:50 28,0°C 61,9% 20,0°C 1012,3hPa 28,0°C 0,0km/h (0Bft) 0,0km/h 0,0l/m² 40,726klx 0,0min
11:45 28,0°C 62,6% 20,2°C 1012,4hPa 28,0°C 0,0km/h (0Bft) 0,0km/h 0,0l/m² 39,775klx 0,0min
11:40 27,9°C 63,5% 20,3°C 1012,4hPa 27,9°C 0,0km/h (0Bft) 0,0km/h 0,0l/m² 47,671klx 0,0min
11:35 27,9°C 63,1% 20,3°C 1012,4hPa 27,9°C 0,0km/h (0Bft) 0,0km/h 0,0l/m² 48,232klx 0,0min
11:30 27,7°C 64,1% 20,3°C 1012,4hPa 27,7°C 0,0km/h (0Bft) 0,0km/h 0,0l/m² 46,256klx 0,0min
11:25 28,0°C 64,4% 20,6°C 1012,4hPa 28,0°C 0,0km/h (0Bft) 0,0km/h 0,0l/m² 48,285klx 0,0min
11:20 27,4°C 67,1% 20,7°C 1012,5hPa 27,4°C 0,0km/h (0Bft) 0,0km/h 0,0l/m² 37,973klx 0,0min
11:15 27,1°C 67,5% 20,6°C 1012,4hPa 27,1°C 0,0km/h (0Bft) 0,0km/h 0,0l/m² 27,575klx 0,0min
11:10 27,0°C 68,6% 20,8°C 1012,5hPa 27,0°C 0,0km/h (0Bft) 0,0km/h 0,0l/m² 17,081klx 0,0min
11:05 27,7°C 65,5% 20,6°C 1012,5hPa 27,7°C 0,0km/h (0Bft) 0,0km/h 0,0l/m² 21,391klx 0,0min
11:00 28,4°C 62,2% 20,5°C 1012,6hPa 28,4°C 0,0km/h (0Bft) 0,0km/h 0,0l/m² 42,292klx 0,0min
10:55 28,7°C 61,9% 20,7°C 1012,7hPa 28,7°C 0,0km/h (0Bft) 0,0km/h 0,0l/m² 71,535klx 0,0min
10:50 28,2°C 64,9% 21,0°C 1012,8hPa 28,2°C 0,0km/h (0Bft) 0,0km/h 0,0l/m² 67,838klx 0,0min
10:45 28,1°C 64,3% 20,7°C 1012,8hPa 28,1°C 0,0km/h (0Bft) 0,0km/h 0,0l/m² 54,206klx 0,0min
10:40 28,1°C 64,1% 20,7°C 1012,7hPa 28,1°C 0,0km/h (0Bft) 0,0km/h 0,0l/m² 67,478klx 0,0min
10:35 28,0°C 65,9% 21,0°C 1012,7hPa 28,0°C 0,0km/h (0Bft) 0,0km/h 0,0l/m² 87,975klx 0,0min
10:30 27,7°C 67,2% 21,0°C 1012,7hPa 27,7°C 0,0km/h (0Bft) 0,0km/h 0,0l/m² 81,276klx 0,0min
10:25 27,4°C 68,4% 21,1°C 1012,7hPa 27,4°C 0,0km/h (0Bft) 0,0km/h 0,0l/m² 70,571klx 0,0min
10:20 27,6°C 67,1% 21,0°C 1012,7hPa 27,6°C 0,0km/h (0Bft) 0,0km/h 0,0l/m² 64,758klx 0,0min
10:15 27,8°C 67,1% 21,1°C 1012,7hPa 27,8°C 0,0km/h (0Bft) 0,0km/h 0,0l/m² 61,653klx 0,0min
10:10 27,3°C 68,2% 20,9°C 1012,8hPa 27,3°C 0,0km/h (0Bft) 0,0km/h 0,0l/m² 59,503klx 0,0min
10:05 27,0°C 69,0% 20,8°C 1012,8hPa 27,0°C 0,0km/h (0Bft) 0,0km/h 0,0l/m² 55,323klx 0,0min
10:00 26,8°C 70,5% 20,9°C 1012,7hPa 26,8°C 0,0km/h (0Bft) 0,0km/h 0,0l/m² 55,220klx 0,0min
09:55 26,0°C 72,1% 20,6°C 1012,8hPa 26,0°C 0,0km/h (0Bft) 0,0km/h 0,0l/m² 36,263klx 0,0min
09:50 26,4°C 69,9% 20,5°C 1012,7hPa 26,4°C 0,0km/h (0Bft) 0,0km/h 0,0l/m² 28,562klx 0,0min
09:45 26,6°C 69,9% 20,7°C 1012,7hPa 26,6°C 0,0km/h (0Bft) 0,0km/h 0,0l/m² 53,469klx 0,0min
09:40 26,7°C 70,7% 20,9°C 1012,8hPa 26,7°C 0,0km/h (0Bft) 0,0km/h 0,0l/m² 48,886klx 0,0min
09:35 26,4°C 70,6% 20,6°C 1012,9hPa 26,4°C 0,0km/h (0Bft) 0,0km/h 0,0l/m² 48,084klx 0,0min
09:30 26,4°C 70,9% 20,7°C 1012,9hPa 26,4°C 0,0km/h (0Bft) 0,0km/h 0,0l/m² 47,491klx 0,0min
09:25 26,0°C 71,8% 20,5°C 1012,9hPa 26,0°C 0,0km/h (0Bft) 0,0km/h 0,0l/m² 45,411klx 0,0min
09:20 25,9°C 72,4% 20,5°C 1012,8hPa 25,9°C 0,0km/h (0Bft) 0,0km/h 0,0l/m² 43,571klx 0,0min
09:15 25,9°C 72,6% 20,6°C 1012,8hPa 25,9°C 0,0km/h (0Bft) 0,0km/h 0,0l/m² 42,216klx 0,0min
09:10 25,8°C 73,9% 20,8°C 1012,8hPa 25,8°C 0,0km/h (0Bft) 0,0km/h 0,0l/m² 41,262klx 0,0min
09:05 25,4°C 74,6% 20,5°C 1012,8hPa 25,4°C 0,0km/h (0Bft) 0,0km/h 0,0l/m² 39,810klx 0,0min
09:00 25,3°C 74,0% 20,4°C 1012,7hPa 25,3°C 0,0km/h (0Bft) 0,0km/h 0,0l/m² 39,366klx 0,0min
08:55 24,9°C 75,8% 20,4°C 1012,7hPa 24,9°C 0,0km/h (0Bft) 0,0km/h 0,0l/m² 37,959klx 0,0min
08:50 24,8°C 75,9% 20,3°C 1012,6hPa 24,8°C 0,0km/h (0Bft) 0,0km/h 0,0l/m² 36,404klx 0,0min
08:45 24,9°C 75,5% 20,3°C 1012,6hPa 24,9°C 0,0km/h (0Bft) 0,0km/h 0,0l/m² 34,653klx 0,0min
08:40 24,7°C 76,8% 20,3°C 1012,6hPa 24,7°C 0,0km/h (0Bft) 0,0km/h 0,0l/m² 32,815klx 0,0min
08:35 24,7°C 76,5% 20,3°C 1012,6hPa 24,7°C 0,0km/h (0Bft) 0,0km/h 0,0l/m² 31,568klx 0,0min
08:30 24,5°C 77,3% 20,3°C 1012,6hPa 24,5°C 0,0km/h (0Bft) 0,0km/h 0,0l/m² 30,373klx 0,0min
08:25 24,4°C 76,8% 20,1°C 1012,4hPa 24,4°C 0,0km/h (0Bft) 0,0km/h 0,0l/m² 29,680klx 0,0min
08:20 24,7°C 76,4% 20,2°C 1012,3hPa 24,7°C 0,0km/h (0Bft) 0,0km/h 0,0l/m² 28,868klx 0,0min
08:15 24,6°C 76,6% 20,2°C 1012,3hPa 24,6°C 0,0km/h (0Bft) 0,0km/h 0,0l/m² 27,838klx 0,0min
08:10 24,3°C 76,7% 20,0°C 1012,2hPa 24,3°C 0,0km/h (0Bft) 0,0km/h 0,0l/m² 26,704klx 0,0min
08:05 24,1°C 77,5% 19,9°C 1012,2hPa 24,1°C 0,0km/h (0Bft) 0,0km/h 0,0l/m² 25,510klx 0,0min
08:00 24,0°C 77,7% 19,9°C 1012,2hPa 24,0°C 0,0km/h (0Bft) 0,0km/h 0,0l/m² 23,851klx 0,0min
07:55 23,8°C 77,9% 19,7°C 1012,1hPa 23,8°C 0,0km/h (0Bft) 0,0km/h 0,0l/m² 22,553klx 0,0min
07:50 23,6°C 78,3% 19,6°C 1012,1hPa 23,6°C 0,0km/h (0Bft) 0,0km/h 0,0l/m² 21,432klx 0,0min
07:45 23,4°C 79,1% 19,6°C 1012,2hPa 23,4°C 0,0km/h (0Bft) 0,0km/h 0,0l/m² 20,367klx 0,0min
07:40 23,2°C 79,9% 19,6°C 1012,2hPa 23,2°C 0,0km/h (0Bft) 0,0km/h 0,0l/m² 18,928klx 0,0min
07:35 23,1°C 80,4% 19,5°C 1012,1hPa 23,1°C 0,0km/h (0Bft) 0,0km/h 0,0l/m² 17,890klx 0,0min
07:30 23,0°C 80,2% 19,4°C 1012,1hPa 23,0°C 0,0km/h (0Bft) 0,0km/h 0,0l/m² 16,614klx 0,0min
07:25 22,9°C 80,4% 19,3°C 1012,1hPa 22,9°C 0,0km/h (0Bft) 0,0km/h 0,0l/m² 15,302klx 0,0min
07:20 22,7°C 81,5% 19,4°C 1012,1hPa 22,7°C 0,0km/h (0Bft) 0,0km/h 0,0l/m² 14,341klx 0,0min
07:15 22,4°C 82,9% 19,4°C 1012,1hPa 22,4°C 0,0km/h (0Bft) 0,0km/h 0,0l/m² 13,301klx 0,0min
07:10 22,1°C 84,4% 19,3°C 1012,1hPa 22,1°C 0,0km/h (0Bft) 0,0km/h 0,0l/m² 12,251klx 0,0min
07:05 21,8°C 86,3% 19,4°C 1012,1hPa 21,8°C 0,0km/h (0Bft) 0,0km/h 0,0l/m² 11,230klx 0,0min
07:00 21,8°C 86,3% 19,4°C 1012,1hPa 21,8°C 0,0km/h (0Bft) 0,0km/h 0,0l/m² 9,378klx 0,0min
06:55 21,6°C 86,6% 19,3°C 1012,1hPa 21,6°C 0,0km/h (0Bft) 0,0km/h 0,0l/m² 7,522klx 0,0min
06:50 21,4°C 87,2% 19,2°C 1012,1hPa 21,4°C 0,0km/h (0Bft) 0,0km/h 0,0l/m² 7,193klx 0,0min
06:45 21,5°C 87,1% 19,2°C 1012,1hPa 21,5°C 0,0km/h (0Bft) 0,0km/h 0,0l/m² 6,903klx 0,0min
06:40 21,4°C 86,9% 19,1°C 1012,1hPa 21,4°C 0,0km/h (0Bft) 0,0km/h 0,0l/m² 6,433klx 0,0min
06:35 21,3°C 86,3% 18,9°C 1012,1hPa 21,3°C 0,0km/h (0Bft) 0,0km/h 0,0l/m² 5,988klx 0,0min
06:30 21,3°C 85,5% 18,8°C 1012,1hPa 21,3°C 0,0km/h (0Bft) 0,0km/h 0,0l/m² 5,770klx 0,0min
06:25 21,4°C 84,9% 18,7°C 1012,1hPa 21,4°C 0,0km/h (0Bft) 0,0km/h 0,0l/m² 5,445klx 0,0min
06:20 21,4°C 84,5% 18,7°C 1012,1hPa 21,4°C 0,0km/h (0Bft) 0,0km/h 0,0l/m² 4,885klx 0,0min
06:15 21,4°C 84,6% 18,7°C 1012,1hPa 21,4°C 0,0km/h (0Bft) 0,0km/h 0,0l/m² 4,354klx 0,0min
06:10 21,2°C 85,1% 18,6°C 1012,2hPa 21,2°C 0,0km/h (0Bft) 0,0km/h 0,0l/m² 3,879klx 0,0min
06:05 21,3°C 84,6% 18,6°C 1012,1hPa 21,3°C 0,0km/h (0Bft) 0,0km/h 0,0l/m² 3,439klx 0,0min
06:00 21,3°C 84,3% 18,5°C 1012,1hPa 21,3°C 0,0km/h (0Bft) 0,0km/h 0,0l/m² 3,011klx 0,0min
05:55 21,3°C 84,6% 18,5°C 1012,1hPa 21,3°C 0,0km/h (0Bft) 0,0km/h 0,0l/m² 2,606klx 0,0min
05:50 21,2°C 84,9% 18,5°C 1012,1hPa 21,2°C 0,0km/h (0Bft) 0,0km/h 0,0l/m² 2,253klx 0,0min
05:45 21,1°C 85,0% 18,5°C 1012,1hPa 21,1°C 0,0km/h (0Bft) 0,0km/h 0,0l/m² 1,907klx 0,0min
05:40 21,2°C 84,5% 18,4°C 1012,1hPa 21,2°C 0,0km/h (0Bft) 0,0km/h 0,0l/m² 1,565klx 0,0min
05:35 21,2°C 84,6% 18,4°C 1012,1hPa 21,2°C 0,0km/h (0Bft) 0,0km/h 0,0l/m² 1,251klx 0,0min
05:30 21,2°C 84,1% 18,4°C 1012,1hPa 21,2°C 0,0km/h (0Bft) 0,0km/h 0,0l/m² 0,977klx 0,0min
05:25 21,2°C 84,4% 18,5°C 1012,1hPa 21,2°C 0,0km/h (0Bft) 0,0km/h 0,0l/m² 0,742klx 0,0min
05:20 21,1°C 84,5% 18,4°C 1012,0hPa 21,1°C 0,0km/h (0Bft) 0,0km/h 0,0l/m² 0,544klx 0,0min
05:15 21,2°C 84,1% 18,4°C 1012,0hPa 21,2°C 0,0km/h (0Bft) 0,0km/h 0,0l/m² 0,384klx 0,0min
05:10 21,3°C 83,4% 18,4°C 1012,0hPa 21,3°C 0,0km/h (0Bft) 0,0km/h 0,0l/m² 0,259klx 0,0min
05:05 21,4°C 83,0% 18,4°C 1012,0hPa 21,4°C 0,0km/h (0Bft) 0,0km/h 0,0l/m² 0,166klx 0,0min
05:00 21,5°C 82,5% 18,4°C 1012,0hPa 21,5°C 0,0km/h (0Bft) 0,0km/h 0,0l/m² 0,102klx 0,0min
04:55 21,6°C 81,9% 18,4°C 1012,0hPa 21,6°C 0,0km/h (0Bft) 0,0km/h 0,0l/m² 0,060klx 0,0min
04:50 21,7°C 81,4% 18,4°C 1012,0hPa 21,7°C 0,0km/h (0Bft) 0,0km/h 0,0l/m² 0,034klx 0,0min
04:45 21,7°C 81,5% 18,4°C 1012,0hPa 21,7°C 0,0km/h (0Bft) 0,0km/h 0,0l/m² 0,019klx 0,0min
04:40 21,7°C 81,1% 18,3°C 1012,1hPa 21,7°C 0,0km/h (0Bft) 0,0km/h 0,0l/m² 0,011klx 0,0min
04:35 21,8°C 80,5% 18,3°C 1012,1hPa 21,8°C 0,0km/h (0Bft) 0,0km/h 0,0l/m² 0,006klx 0,0min
04:30 22,0°C 79,4% 18,3°C 1012,0hPa 22,0°C 0,0km/h (0Bft) 0,0km/h 0,0l/m² 0,004klx 0,0min
04:25 22,1°C 79,3% 18,3°C 1012,1hPa 22,1°C 0,0km/h (0Bft) 0,0km/h 0,0l/m² 0,002klx 0,0min
04:20 22,1°C 79,2% 18,3°C 1012,2hPa 22,1°C 0,0km/h (0Bft) 0,0km/h 0,0l/m² 0,001klx 0,0min
04:15 22,2°C 78,5% 18,3°C 1012,2hPa 22,2°C 0,0km/h (0Bft) 0,0km/h 0,0l/m² 0,001klx 0,0min
04:10 22,2°C 78,7% 18,3°C 1012,2hPa 22,2°C 0,0km/h (0Bft) 0,0km/h 0,0l/m² 0,001klx 0,0min
04:05 22,2°C 78,5% 18,3°C 1012,2hPa 22,2°C 0,0km/h (0Bft) 0,0km/h 0,0l/m² 0,001klx 0,0min
04:00 22,2°C 78,9% 18,3°C 1012,2hPa 22,2°C 0,0km/h (0Bft) 0,0km/h 0,0l/m² 0,000klx 0,0min
03:55 22,3°C 78,0% 18,3°C 1012,2hPa 22,3°C 0,0km/h (0Bft) 0,0km/h 0,0l/m² 0,000klx 0,0min
03:50 22,5°C 76,8% 18,2°C 1012,2hPa 22,5°C 0,0km/h (0Bft) 0,0km/h 0,0l/m² 0,000klx 0,0min
03:45 22,5°C 76,7% 18,2°C 1012,2hPa 22,5°C 0,0km/h (0Bft) 0,0km/h 0,0l/m² 0,001klx 0,0min
03:40 22,6°C 76,5% 18,2°C 1012,3hPa 22,6°C 0,0km/h (0Bft) 0,0km/h 0,0l/m² 0,000klx 0,0min
03:35 22,7°C 75,6% 18,2°C 1012,4hPa 22,7°C 0,0km/h (0Bft) 0,0km/h 0,0l/m² 0,000klx 0,0min
03:30 22,8°C 75,0% 18,2°C 1012,5hPa 22,8°C 0,0km/h (0Bft) 0,0km/h 0,0l/m² 0,000klx 0,0min
03:25 22,7°C 75,6% 18,2°C 1012,6hPa 22,7°C 0,0km/h (0Bft) 0,0km/h 0,0l/m² 0,001klx 0,0min
03:20 22,6°C 76,1% 18,2°C 1012,6hPa 22,6°C 0,0km/h (0Bft) 0,0km/h 0,0l/m² 0,001klx 0,0min
03:15 22,8°C 75,3% 18,2°C 1012,8hPa 22,8°C 0,0km/h (0Bft) 0,0km/h 0,0l/m² 0,000klx 0,0min
03:10 22,7°C 75,5% 18,2°C 1012,8hPa 22,7°C 0,0km/h (0Bft) 0,0km/h 0,0l/m² 0,000klx 0,0min
03:05 22,9°C 74,9% 18,2°C 1012,9hPa 22,9°C 0,0km/h (0Bft) 0,0km/h 0,0l/m² 0,000klx 0,0min
03:00 23,0°C 74,5% 18,2°C 1012,8hPa 23,0°C 0,0km/h (0Bft) 0,0km/h 0,0l/m² 0,000klx 0,0min
02:55 23,0°C 74,9% 18,3°C 1012,8hPa 23,0°C 0,0km/h (0Bft) 0,0km/h 0,0l/m² 0,000klx 0,0min
02:50 23,1°C 74,3% 18,3°C 1012,8hPa 23,1°C 0,0km/h (0Bft) 0,0km/h 0,0l/m² 0,000klx 0,0min
02:45 23,1°C 74,8% 18,4°C 1012,8hPa 23,1°C 0,0km/h (0Bft) 0,0km/h 0,0l/m² 0,000klx 0,0min
02:40 23,1°C 74,6% 18,4°C 1012,8hPa 23,1°C 0,0km/h (0Bft) 0,0km/h 0,0l/m² 0,000klx 0,0min
02:35 23,0°C 75,3% 18,4°C 1012,8hPa 23,0°C 0,0km/h (0Bft) 0,0km/h 0,0l/m² 0,000klx 0,0min
02:30 23,2°C 74,2% 18,4°C 1012,8hPa 23,2°C 0,0km/h (0Bft) 0,0km/h 0,0l/m² 0,000klx 0,0min
02:25 23,4°C 73,6% 18,4°C 1012,8hPa 23,4°C 0,0km/h (0Bft) 0,0km/h 0,0l/m² 0,000klx 0,0min
02:20 23,5°C 73,0% 18,4°C 1012,7hPa 23,5°C 0,0km/h (0Bft) 0,0km/h 0,0l/m² 0,000klx 0,0min
02:15 23,6°C 72,6% 18,4°C 1012,7hPa 23,6°C 0,0km/h (0Bft) 0,0km/h 0,0l/m² 0,000klx 0,0min
02:10 23,7°C 72,2% 18,4°C 1012,6hPa 23,7°C 0,0km/h (0Bft) 0,0km/h 0,0l/m² 0,000klx 0,0min
02:05 23,9°C 71,5% 18,4°C 1012,7hPa 23,9°C 0,0km/h (0Bft) 0,0km/h 0,0l/m² 0,000klx 0,0min
02:00 23,8°C 71,9% 18,4°C 1012,8hPa 23,8°C 0,0km/h (0Bft) 0,0km/h 0,0l/m² 0,000klx 0,0min
01:55 23,8°C 71,9% 18,5°C 1013,0hPa 23,8°C 0,0km/h (0Bft) 0,0km/h 0,0l/m² 0,000klx 0,0min
01:50 23,8°C 72,0% 18,5°C 1013,0hPa 23,8°C 0,0km/h (0Bft) 0,0km/h 0,0l/m² 0,001klx 0,0min
01:45 23,9°C 71,5% 18,4°C 1013,1hPa 23,9°C 0,0km/h (0Bft) 0,0km/h 0,0l/m² 0,001klx 0,0min
01:40 24,1°C 70,5% 18,4°C 1013,1hPa 24,1°C 0,0km/h (0Bft) 0,0km/h 0,0l/m² 0,000klx 0,0min
01:35 24,3°C 69,9% 18,4°C 1013,2hPa 24,3°C 0,0km/h (0Bft) 0,0km/h 0,0l/m² 0,001klx 0,0min
01:30 24,4°C 69,3% 18,4°C 1013,2hPa 24,4°C 0,0km/h (0Bft) 0,0km/h 0,0l/m² 0,000klx 0,0min
01:25 24,5°C 69,4% 18,5°C 1013,2hPa 24,5°C 0,0km/h (0Bft) 0,0km/h 0,0l/m² 0,000klx 0,0min
01:20 24,4°C 70,0% 18,6°C 1013,2hPa 24,4°C 0,0km/h (0Bft) 0,0km/h 0,0l/m² 0,001klx 0,0min
01:15 24,4°C 70,8% 18,8°C 1013,2hPa 24,4°C 0,0km/h (0Bft) 0,0km/h 0,0l/m² 0,000klx 0,0min
01:10 24,6°C 70,0% 18,8°C 1013,1hPa 24,6°C 0,0km/h (0Bft) 0,0km/h 0,0l/m² 0,001klx 0,0min
01:05 24,7°C 69,6% 18,8°C 1013,1hPa 24,7°C 0,0km/h (0Bft) 0,0km/h 0,0l/m² 0,000klx 0,0min
01:00 24,8°C 69,3% 18,7°C 1013,1hPa 24,8°C 0,0km/h (0Bft) 0,0km/h 0,0l/m² 0,000klx 0,0min
00:55 24,8°C 69,2% 18,8°C 1013,1hPa 24,8°C 0,0km/h (0Bft) 0,0km/h 0,0l/m² 0,001klx 0,0min
00:50 24,9°C 68,9% 18,8°C 1013,0hPa 24,9°C 0,0km/h (0Bft) 0,0km/h 0,0l/m² 0,001klx 0,0min
00:45 25,1°C 68,2% 18,8°C 1013,0hPa 25,1°C 0,0km/h (0Bft) 0,0km/h 0,0l/m² 0,001klx 0,0min
00:40 25,1°C 67,8% 18,8°C 1013,0hPa 25,1°C 0,0km/h (0Bft) 0,0km/h 0,0l/m² 0,000klx 0,0min
00:35 25,2°C 67,5% 18,8°C 1012,9hPa 25,2°C 0,0km/h (0Bft) 0,0km/h 0,0l/m² 0,001klx 0,0min
00:30 25,5°C 66,8% 18,8°C 1012,8hPa 25,5°C 0,0km/h (0Bft) 0,0km/h 0,0l/m² 0,000klx 0,0min
00:25 25,6°C 67,0% 19,0°C 1012,8hPa 25,6°C 0,0km/h (0Bft) 0,0km/h 0,0l/m² 0,000klx 0,0min
00:20 25,5°C 67,8% 19,1°C 1012,7hPa 25,5°C 0,0km/h (0Bft) 0,0km/h 0,0l/m² 0,000klx 0,0min
00:15 25,7°C 66,9% 19,1°C 1012,8hPa 25,7°C 0,0km/h (0Bft) 0,0km/h 0,0l/m² 0,001klx 0,0min
00:10 25,6°C 67,4% 19,1°C 1012,8hPa 25,6°C 0,0km/h (0Bft) 0,0km/h 0,0l/m² 0,000klx 0,0min
00:05 25,5°C 67,1% 19,0°C 1012,7hPa 25,5°C 0,0km/h (0Bft) 0,0km/h 0,0l/m² 0,001klx 0,0min
00:00 25,4°C 67,5% 19,0°C 1012,6hPa 25,4°C 0,0km/h (0Bft) 0,0km/h 0,0l/m² 0,000klx 0,0min

Aktuelle Wetterdaten

18.06.2021 13:35 Uhr